createdAt,value
2018-06-14T00:00:32.349Z,15.81
2018-06-14T00:03:00.340Z,15.78
2018-06-14T00:05:28.464Z,15.83
2018-06-14T00:07:56.539Z,15.92
2018-06-14T00:10:24.581Z,16.04
2018-06-14T00:12:52.620Z,16.01
2018-06-14T00:15:20.629Z,15.86
2018-06-14T00:17:48.623Z,15.78
2018-06-14T00:20:16.722Z,15.83
2018-06-14T00:22:44.697Z,15.81
2018-06-14T00:25:12.912Z,15.79
2018-06-14T00:27:40.944Z,15.71
2018-06-14T00:30:08.949Z,15.62
2018-06-14T00:32:37.043Z,15.50
2018-06-14T00:35:05.062Z,15.50
2018-06-14T00:37:33.184Z,15.58
2018-06-14T00:40:01.150Z,15.62
2018-06-14T00:42:29.195Z,15.55
2018-06-14T00:44:57.193Z,15.49
2018-06-14T00:47:25.188Z,15.47
2018-06-14T00:49:53.164Z,15.47
2018-06-14T00:52:21.165Z,15.47
2018-06-14T00:54:49.240Z,15.48
2018-06-14T00:57:24.534Z,15.57
2018-06-14T00:59:52.531Z,15.58
2018-06-14T01:02:20.640Z,15.56
2018-06-14T01:04:48.749Z,15.63
2018-06-14T01:07:16.792Z,15.53
2018-06-14T01:09:44.799Z,15.49
2018-06-14T01:12:12.868Z,15.40
2018-06-14T01:14:41.071Z,15.43
2018-06-14T01:17:09.506Z,15.39
2018-06-14T01:19:37.504Z,15.39
2018-06-14T01:22:05.640Z,15.42
2018-06-14T01:24:33.710Z,15.38
2018-06-14T01:27:05.886Z,15.39
2018-06-14T01:29:33.992Z,15.41
2018-06-14T01:32:02.196Z,15.39
2018-06-14T01:34:30.183Z,15.38
2018-06-14T01:36:58.152Z,15.31
2018-06-14T01:39:26.264Z,15.33
2018-06-14T01:41:54.365Z,15.28
2018-06-14T01:44:22.687Z,15.29
2018-06-14T01:46:50.765Z,15.30
2018-06-14T01:49:18.982Z,15.28
2018-06-14T01:51:47.047Z,15.27
2018-06-14T01:54:15.077Z,15.28
2018-06-14T01:56:43.164Z,15.17
2018-06-14T01:59:11.255Z,15.19
2018-06-14T02:01:39.293Z,15.16
2018-06-14T02:04:07.352Z,15.13
2018-06-14T02:06:35.408Z,15.09
2018-06-14T02:09:04.957Z,15.07
2018-06-14T02:11:33.009Z,15.02
2018-06-14T02:14:00.956Z,14.96
2018-06-14T02:16:29.037Z,14.95
2018-06-14T02:18:57.103Z,14.91
2018-06-14T02:21:25.176Z,14.93
2018-06-14T02:23:53.177Z,14.99
2018-06-14T02:26:21.135Z,14.89
2018-06-14T02:28:49.159Z,14.84
2018-06-14T02:31:17.212Z,14.75
2018-06-14T02:33:45.221Z,14.68
2018-06-14T02:36:13.330Z,14.64
2018-06-14T02:38:41.396Z,14.64
2018-06-14T02:41:09.435Z,14.56
2018-06-14T02:43:37.624Z,14.53
2018-06-14T02:46:05.675Z,14.47
2018-06-14T02:48:33.657Z,14.42
2018-06-14T02:51:01.664Z,14.42
2018-06-14T02:53:29.697Z,14.38
2018-06-14T02:55:57.721Z,14.30
2018-06-14T02:58:25.704Z,14.31
2018-06-14T03:00:53.671Z,14.25
2018-06-14T03:03:22.129Z,14.12
2018-06-14T03:05:50.405Z,14.17
2018-06-14T03:08:18.517Z,14.22
2018-06-14T03:10:46.627Z,14.22
2018-06-14T03:13:14.666Z,14.27
2018-06-14T03:15:42.820Z,14.37
2018-06-14T03:18:10.829Z,14.45
2018-06-14T03:20:38.851Z,14.43
2018-06-14T03:23:07.008Z,14.38
2018-06-14T03:25:34.985Z,14.45
2018-06-14T03:28:03.150Z,14.54
2018-06-14T03:30:31.288Z,14.66
2018-06-14T03:32:59.485Z,14.80
2018-06-14T03:35:27.647Z,15.05
2018-06-14T03:37:55.923Z,15.09
2018-06-14T03:40:24.009Z,15.11
2018-06-14T03:42:52.359Z,15.15
2018-06-14T03:45:21.541Z,15.19
2018-06-14T03:47:50.785Z,15.15
2018-06-14T03:50:18.982Z,15.11
2018-06-14T03:52:47.088Z,15.48
2018-06-14T03:55:15.149Z,16.53
2018-06-14T03:57:43.156Z,17.34
2018-06-14T04:00:11.213Z,18.13
2018-06-14T04:02:39.240Z,19.03
2018-06-14T04:05:07.429Z,20.14
2018-06-14T04:07:35.545Z,21.10
2018-06-14T04:10:03.786Z,21.74
2018-06-14T04:12:31.800Z,21.87
2018-06-14T04:14:59.919Z,22.13
2018-06-14T04:17:28.023Z,22.14
2018-06-14T04:19:56.040Z,22.10
2018-06-14T04:22:24.069Z,22.48
2018-06-14T04:24:52.261Z,22.39
2018-06-14T04:27:20.327Z,21.93
2018-06-14T04:29:48.290Z,21.25
2018-06-14T04:32:16.392Z,21.12
2018-06-14T04:34:44.518Z,20.34
2018-06-14T04:37:12.583Z,19.71
2018-06-14T04:39:40.548Z,19.67
2018-06-14T04:42:08.604Z,18.97
2018-06-14T04:44:36.775Z,18.59
2018-06-14T04:47:04.968Z,18.65
2018-06-14T04:49:33.025Z,18.35
2018-06-14T04:52:01.039Z,18.53
2018-06-14T04:54:29.139Z,18.31
2018-06-14T04:56:57.324Z,18.05
2018-06-14T04:59:25.691Z,17.77
2018-06-14T05:01:53.876Z,17.72
2018-06-14T05:04:22.204Z,18.02
2018-06-14T05:06:50.446Z,18.00
2018-06-14T05:09:18.559Z,17.78
2018-06-14T05:11:46.605Z,17.56
2018-06-14T05:14:14.729Z,17.38
2018-06-14T05:16:42.841Z,17.48
2018-06-14T05:19:10.949Z,17.38
2018-06-14T05:21:39.043Z,17.22
2018-06-14T05:24:07.166Z,17.18
2018-06-14T05:26:35.241Z,17.26
2018-06-14T05:29:04.349Z,17.32
2018-06-14T05:31:32.452Z,17.24
2018-06-14T05:34:00.850Z,17.41
2018-06-14T05:36:28.888Z,17.26
2018-06-14T05:38:56.876Z,17.14
2018-06-14T05:41:25.076Z,17.31
2018-06-14T05:43:53.124Z,17.37
2018-06-14T05:46:21.158Z,17.42
2018-06-14T05:48:49.445Z,17.35
2018-06-14T05:51:17.579Z,17.32
2018-06-14T05:53:45.766Z,17.32
2018-06-14T05:56:13.843Z,17.43
2018-06-14T05:58:42.403Z,17.58
2018-06-14T06:01:10.581Z,17.68
2018-06-14T06:03:38.713Z,17.64
2018-06-14T06:06:07.090Z,17.62
2018-06-14T06:08:36.572Z,17.69
2018-06-14T06:11:04.842Z,17.73
2018-06-14T06:13:33.504Z,17.83
2018-06-14T06:16:01.716Z,17.96
2018-06-14T06:18:29.904Z,18.21
2018-06-14T06:20:58.179Z,18.64
2018-06-14T06:23:26.261Z,18.79
2018-06-14T06:25:54.398Z,18.87
2018-06-14T06:28:22.576Z,18.84
2018-06-14T06:30:50.764Z,18.98
2018-06-14T06:33:19.083Z,18.96
2018-06-14T06:35:47.348Z,18.76
2018-06-14T06:38:15.569Z,18.54
2018-06-14T06:40:43.709Z,18.28
2018-06-14T06:43:11.946Z,18.27
2018-06-14T06:45:40.173Z,18.20
2018-06-14T06:48:08.181Z,18.29
2018-06-14T06:50:36.327Z,18.11
2018-06-14T06:53:04.407Z,17.97
2018-06-14T06:55:32.513Z,17.92
2018-06-14T06:58:00.727Z,18.09
2018-06-14T07:00:28.891Z,18.11
2018-06-14T07:02:57.007Z,18.10
2018-06-14T07:05:25.531Z,17.86
2018-06-14T07:07:53.508Z,17.80
2018-06-14T07:10:21.540Z,17.89
2018-06-14T07:12:50.211Z,18.04
2018-06-14T07:15:18.505Z,18.11
2018-06-14T07:17:46.833Z,18.34
2018-06-14T07:20:15.235Z,18.44
2018-06-14T07:22:43.475Z,18.41
2018-06-14T07:25:11.718Z,18.46
2018-06-14T07:27:40.537Z,18.27
2018-06-14T07:30:09.310Z,18.24
2018-06-14T07:32:37.370Z,18.30
2018-06-14T07:35:05.478Z,18.15
2018-06-14T07:37:33.750Z,18.19
2018-06-14T07:40:02.069Z,18.25
2018-06-14T07:42:30.718Z,18.10
2018-06-14T07:44:59.125Z,18.05
2018-06-14T07:47:27.893Z,18.08
2018-06-14T07:49:56.327Z,18.12
2018-06-14T07:52:24.526Z,18.11
2018-06-14T07:54:53.363Z,18.34
2018-06-14T07:57:21.818Z,18.31
2018-06-14T07:59:49.975Z,18.37
2018-06-14T08:02:18.491Z,18.31
2018-06-14T08:04:46.849Z,18.23
2018-06-14T08:07:15.054Z,18.11
2018-06-14T08:09:43.144Z,18.03
2018-06-14T08:12:11.620Z,17.93
2018-06-14T08:14:39.876Z,18.00
2018-06-14T08:17:08.237Z,17.95
2018-06-14T08:19:36.805Z,18.00
2018-06-14T08:22:05.090Z,18.04
2018-06-14T08:24:33.281Z,17.84
2018-06-14T08:27:01.548Z,17.78
2018-06-14T08:29:29.865Z,17.77
2018-06-14T08:31:58.120Z,17.69
2018-06-14T08:34:26.283Z,17.71
2018-06-14T08:37:00.931Z,17.78
2018-06-14T08:39:29.015Z,17.83
2018-06-14T08:41:57.059Z,17.63
2018-06-14T08:44:25.262Z,17.47
2018-06-14T08:46:53.480Z,17.56
2018-06-14T08:49:21.550Z,17.56
2018-06-14T08:51:49.690Z,17.65
2018-06-14T08:54:17.834Z,17.75
2018-06-14T08:56:46.048Z,17.94
2018-06-14T08:59:14.100Z,18.16
2018-06-14T09:01:42.133Z,18.04
2018-06-14T09:04:10.180Z,18.01
2018-06-14T09:06:38.326Z,17.87
2018-06-14T09:09:08.292Z,17.91
2018-06-14T09:11:36.447Z,17.85
2018-06-14T09:14:04.756Z,17.89
2018-06-14T09:16:32.914Z,17.98
2018-06-14T09:19:01.048Z,18.15
2018-06-14T09:21:30.404Z,18.22
2018-06-14T09:23:58.659Z,18.21
2018-06-14T09:26:27.009Z,18.16
2018-06-14T09:28:55.325Z,18.17
2018-06-14T09:31:23.743Z,18.18
2018-06-14T09:33:51.895Z,18.22
2018-06-14T09:36:20.021Z,18.29
2018-06-14T09:38:48.489Z,18.41
2018-06-14T09:41:16.688Z,18.51
2018-06-14T09:43:44.857Z,18.42
2018-06-14T09:46:13.178Z,18.71
2018-06-14T09:48:41.425Z,18.90
2018-06-14T09:51:09.768Z,18.96
2018-06-14T09:53:38.197Z,19.10
2018-06-14T09:56:06.523Z,19.15
2018-06-14T09:58:34.820Z,19.17
2018-06-14T10:01:03.146Z,19.38
2018-06-14T10:03:31.471Z,19.40
2018-06-14T10:06:00.240Z,19.29
2018-06-14T10:08:28.682Z,19.37
2018-06-14T10:10:57.223Z,19.62
2018-06-14T10:13:25.492Z,19.66
2018-06-14T10:15:54.004Z,19.75
2018-06-14T10:18:22.558Z,19.98
2018-06-14T10:20:51.086Z,20.02
2018-06-14T10:23:19.239Z,20.04
2018-06-14T10:25:47.483Z,20.37
2018-06-14T10:28:15.793Z,20.62
2018-06-14T10:30:43.878Z,21.08
2018-06-14T10:33:13.071Z,21.06
2018-06-14T10:35:41.477Z,21.35
2018-06-14T10:38:09.822Z,21.39
2018-06-14T10:40:38.163Z,22.13
2018-06-14T10:43:13.821Z,22.40
2018-06-14T10:45:42.175Z,22.30
2018-06-14T10:48:10.546Z,22.18
2018-06-14T10:50:38.684Z,22.06
2018-06-14T10:53:06.926Z,21.54
2018-06-14T10:55:35.786Z,22.16
2018-06-14T10:58:04.071Z,22.23
2018-06-14T11:00:32.269Z,22.53
2018-06-14T11:03:00.890Z,22.32
2018-06-14T11:05:29.182Z,22.04
2018-06-14T11:07:57.533Z,22.12
2018-06-14T11:10:26.023Z,21.88
2018-06-14T11:12:54.599Z,22.46
2018-06-14T11:15:23.369Z,22.96
2018-06-14T11:17:51.724Z,23.10
2018-06-14T11:20:19.935Z,23.45
2018-06-14T11:22:48.164Z,23.07
2018-06-14T11:25:16.381Z,23.14
2018-06-14T11:27:44.579Z,23.30
2018-06-14T11:30:12.754Z,23.45
2018-06-14T11:32:40.977Z,22.93
2018-06-14T11:35:09.445Z,22.35
2018-06-14T11:37:38.019Z,22.96
2018-06-14T11:40:06.427Z,22.65
2018-06-14T11:42:34.816Z,22.55
2018-06-14T11:45:03.227Z,22.91
2018-06-14T11:47:31.446Z,23.15
2018-06-14T11:49:59.836Z,23.64
2018-06-14T11:52:28.034Z,23.90
2018-06-14T11:54:56.146Z,23.63
2018-06-14T11:57:24.431Z,23.66
2018-06-14T11:59:53.541Z,23.43
2018-06-14T12:02:22.503Z,23.15
2018-06-14T12:04:51.755Z,23.87
2018-06-14T12:07:20.174Z,23.81
2018-06-14T12:09:48.487Z,23.94
2018-06-14T12:12:17.172Z,23.74
2018-06-14T12:14:45.837Z,23.89
2018-06-14T12:17:14.181Z,23.92
2018-06-14T12:19:42.386Z,23.77
2018-06-14T12:22:10.858Z,23.87
2018-06-14T12:24:39.190Z,24.30
2018-06-14T12:27:07.310Z,24.99
2018-06-14T12:29:35.480Z,25.35
2018-06-14T12:32:03.660Z,25.08
2018-06-14T12:34:31.836Z,25.30
2018-06-14T12:36:59.971Z,25.32
2018-06-14T12:39:28.076Z,25.40
2018-06-14T12:41:56.423Z,25.04
2018-06-14T12:44:24.877Z,24.81
2018-06-14T12:46:53.201Z,25.11
2018-06-14T12:49:21.347Z,24.92
2018-06-14T12:51:49.981Z,24.59
2018-06-14T12:54:18.385Z,24.18
2018-06-14T12:56:46.720Z,23.71
2018-06-14T12:59:14.942Z,23.63
2018-06-14T13:01:43.251Z,23.53
2018-06-14T13:04:11.434Z,23.39
2018-06-14T13:06:39.657Z,22.90
2018-06-14T13:09:09.802Z,22.25
2018-06-14T13:11:38.039Z,21.67
2018-06-14T13:14:06.171Z,21.32
2018-06-14T13:16:34.179Z,21.11
2018-06-14T13:19:02.187Z,21.04
2018-06-14T13:21:30.262Z,21.15
2018-06-14T13:23:58.357Z,21.19
2018-06-14T13:26:26.492Z,21.01
2018-06-14T13:28:54.598Z,21.06
2018-06-14T13:31:22.838Z,21.01
2018-06-14T13:33:50.982Z,20.57
2018-06-14T13:36:19.282Z,20.68
2018-06-14T13:38:47.401Z,20.96
2018-06-14T13:41:15.583Z,20.93
2018-06-14T13:43:43.888Z,20.98
2018-06-14T13:46:12.361Z,20.95
2018-06-14T13:48:40.765Z,21.11
2018-06-14T13:51:09.424Z,21.24
2018-06-14T13:53:38.202Z,21.45
2018-06-14T13:56:06.810Z,21.72
2018-06-14T13:58:35.390Z,21.94
2018-06-14T14:01:03.952Z,22.33
2018-06-14T14:03:32.467Z,22.23
2018-06-14T14:06:00.946Z,22.44
2018-06-14T14:08:29.452Z,22.60
2018-06-14T14:10:57.756Z,22.52
2018-06-14T14:13:26.330Z,22.81
2018-06-14T14:15:54.758Z,21.91
2018-06-14T14:18:23.172Z,21.51
2018-06-14T14:20:51.790Z,21.53
2018-06-14T14:23:20.440Z,21.47
2018-06-14T14:25:48.932Z,21.37
2018-06-14T14:28:17.505Z,20.89
2018-06-14T14:30:45.959Z,21.09
2018-06-14T14:33:14.677Z,21.53
2018-06-14T14:35:43.363Z,21.84
2018-06-14T14:38:11.962Z,21.77
2018-06-14T14:40:40.430Z,21.87
2018-06-14T14:43:09.011Z,21.94
2018-06-14T14:45:37.561Z,22.43
2018-06-14T14:48:05.987Z,22.30
2018-06-14T14:50:34.790Z,22.10
2018-06-14T14:53:03.363Z,21.92
2018-06-14T14:55:31.963Z,21.92
2018-06-14T14:58:00.581Z,21.99
2018-06-14T15:00:29.116Z,22.16
2018-06-14T15:02:57.767Z,22.06
2018-06-14T15:05:26.450Z,22.23
2018-06-14T15:07:55.024Z,22.36
2018-06-14T15:10:23.696Z,22.53
2018-06-14T15:12:52.180Z,22.60
2018-06-14T15:15:20.891Z,22.73
2018-06-14T15:17:49.741Z,22.94
2018-06-14T15:20:18.186Z,23.29
2018-06-14T15:22:47.677Z,23.52
2018-06-14T15:25:16.356Z,23.80
2018-06-14T15:27:45.034Z,24.11
2018-06-14T15:30:13.977Z,23.99
2018-06-14T15:32:42.765Z,23.84
2018-06-14T15:35:11.488Z,23.22
2018-06-14T15:37:40.172Z,22.94
2018-06-14T15:40:08.767Z,22.71
2018-06-14T15:42:38.307Z,22.63
2018-06-14T15:45:07.077Z,22.26
2018-06-14T15:47:36.186Z,22.05
2018-06-14T15:50:05.067Z,22.08
2018-06-14T15:52:33.885Z,21.79
2018-06-14T15:55:13.385Z,21.68
2018-06-14T15:57:41.904Z,21.57
2018-06-14T16:00:10.605Z,21.64
2018-06-14T16:02:39.147Z,21.65
2018-06-14T16:05:07.779Z,21.55
2018-06-14T16:07:36.631Z,21.22
2018-06-14T16:10:05.428Z,21.16
2018-06-14T16:12:33.988Z,21.15
2018-06-14T16:15:03.035Z,21.06
2018-06-14T16:17:31.930Z,20.80
2018-06-14T16:20:00.931Z,20.72
2018-06-14T16:22:29.208Z,20.61
2018-06-14T16:24:57.693Z,20.31
2018-06-14T16:27:26.026Z,20.08
2018-06-14T16:29:54.485Z,19.86
2018-06-14T16:32:23.024Z,19.95
2018-06-14T16:34:51.541Z,19.96
2018-06-14T16:37:20.011Z,19.90
2018-06-14T16:39:48.505Z,19.91
2018-06-14T16:42:16.956Z,19.99
2018-06-14T16:44:45.484Z,19.87
2018-06-14T16:47:13.679Z,19.59
2018-06-14T16:49:42.073Z,19.39
2018-06-14T16:52:10.380Z,19.29
2018-06-14T16:54:38.703Z,18.96
2018-06-14T16:57:06.916Z,18.73
2018-06-14T16:59:35.107Z,18.77
2018-06-14T17:02:03.348Z,18.61
2018-06-14T17:04:31.644Z,18.40
2018-06-14T17:07:00.138Z,18.30
2018-06-14T17:09:28.664Z,18.17
2018-06-14T17:11:56.851Z,18.22
2018-06-14T17:14:25.215Z,18.08
2018-06-14T17:16:53.554Z,17.99
2018-06-14T17:19:21.795Z,17.89
2018-06-14T17:21:50.116Z,17.86
2018-06-14T17:24:18.282Z,17.73
2018-06-14T17:26:46.631Z,17.79
2018-06-14T17:29:15.166Z,17.82
2018-06-14T17:31:43.702Z,17.56
2018-06-14T17:34:12.167Z,17.41
2018-06-14T17:36:40.388Z,17.31
2018-06-14T17:39:08.648Z,17.36
2018-06-14T17:41:36.985Z,17.32
2018-06-14T17:44:05.032Z,17.25
2018-06-14T17:46:33.097Z,17.15
2018-06-14T17:49:01.238Z,17.12
2018-06-14T17:51:29.352Z,17.02
2018-06-14T17:53:57.687Z,16.93
2018-06-14T17:56:25.791Z,16.97
2018-06-14T17:58:53.831Z,16.90
2018-06-14T18:01:21.862Z,16.95
2018-06-14T18:03:49.941Z,16.90
2018-06-14T18:06:18.303Z,16.76
2018-06-14T18:08:46.330Z,16.87
2018-06-14T18:11:14.353Z,16.81
2018-06-14T18:13:42.526Z,16.80
2018-06-14T18:16:10.999Z,16.75
2018-06-14T18:18:39.423Z,16.71
2018-06-14T18:21:07.674Z,16.73
2018-06-14T18:23:35.765Z,16.71
2018-06-14T18:26:03.897Z,16.67
2018-06-14T18:28:32.167Z,16.68
2018-06-14T18:31:00.478Z,16.65
2018-06-14T18:33:28.978Z,16.63
2018-06-14T18:35:57.214Z,16.68
2018-06-14T18:38:25.622Z,16.62
2018-06-14T18:40:53.819Z,16.54
2018-06-14T18:43:21.882Z,16.53
2018-06-14T18:45:50.151Z,16.48
2018-06-14T18:48:18.319Z,16.49
2018-06-14T18:50:46.494Z,16.44
2018-06-14T18:53:14.648Z,16.42
2018-06-14T18:55:42.814Z,16.37
2018-06-14T18:58:10.956Z,16.40
2018-06-14T19:00:39.159Z,16.40
2018-06-14T19:03:07.265Z,16.37
2018-06-14T19:05:35.613Z,16.34
2018-06-14T19:08:03.863Z,16.32
2018-06-14T19:10:32.210Z,16.34
2018-06-14T19:13:00.488Z,16.23
2018-06-14T19:15:28.712Z,16.20
2018-06-14T19:17:56.929Z,16.14
2018-06-14T19:20:25.644Z,16.12
2018-06-14T19:22:53.774Z,15.99
2018-06-14T19:25:22.105Z,15.93
2018-06-14T19:27:50.491Z,15.88
2018-06-14T19:30:18.762Z,15.81
2018-06-14T19:32:46.891Z,15.76
2018-06-14T19:35:14.936Z,15.74
2018-06-14T19:37:42.935Z,15.71
2018-06-14T19:40:11.117Z,15.64
2018-06-14T19:42:39.272Z,15.63
2018-06-14T19:45:07.384Z,15.58
2018-06-14T19:47:35.578Z,15.57
2018-06-14T19:50:03.750Z,15.49
2018-06-14T19:52:31.931Z,15.48
2018-06-14T19:54:59.998Z,15.39
2018-06-14T19:57:28.015Z,15.37
2018-06-14T19:59:56.298Z,15.34
2018-06-14T20:02:24.603Z,15.28
2018-06-14T20:04:52.827Z,15.27
2018-06-14T20:07:20.961Z,15.26
2018-06-14T20:09:49.221Z,15.21
2018-06-14T20:12:17.488Z,15.23
2018-06-14T20:14:45.704Z,15.28
2018-06-14T20:17:13.766Z,15.22
2018-06-14T20:19:41.944Z,15.27
2018-06-14T20:22:10.041Z,15.27
2018-06-14T20:24:38.159Z,15.20
2018-06-14T20:27:06.209Z,15.19
2018-06-14T20:29:34.225Z,15.09
2018-06-14T20:32:02.416Z,15.05
2018-06-14T20:34:30.478Z,15.01
2018-06-14T20:36:58.522Z,15.01
2018-06-14T20:39:26.616Z,14.88
2018-06-14T20:41:54.752Z,14.80
2018-06-14T20:44:22.794Z,14.74
2018-06-14T20:46:51.312Z,14.56
2018-06-14T20:49:19.728Z,14.51
2018-06-14T20:51:47.987Z,14.50
2018-06-14T20:54:16.179Z,14.58
2018-06-14T20:56:44.478Z,14.58
2018-06-14T20:59:12.746Z,14.61
2018-06-14T21:01:40.802Z,14.60
2018-06-14T21:04:09.030Z,14.59
2018-06-14T21:06:37.307Z,14.53
2018-06-14T21:09:08.141Z,14.51
2018-06-14T21:11:36.230Z,14.47
2018-06-14T21:14:04.393Z,14.37
2018-06-14T21:16:32.613Z,14.29
2018-06-14T21:19:00.692Z,14.16
2018-06-14T21:21:28.901Z,14.20
2018-06-14T21:23:57.111Z,14.01
2018-06-14T21:26:25.264Z,13.97
2018-06-14T21:28:53.539Z,13.96
2018-06-14T21:31:21.618Z,13.95
2018-06-14T21:33:49.822Z,13.95
2018-06-14T21:36:18.008Z,13.85
2018-06-14T21:38:46.115Z,13.84
2018-06-14T21:41:14.122Z,13.78
2018-06-14T21:43:42.173Z,13.75
2018-06-14T21:46:10.258Z,13.69
2018-06-14T21:48:38.220Z,13.65
2018-06-14T21:51:06.330Z,13.63
2018-06-14T21:53:34.384Z,13.58
2018-06-14T21:56:02.535Z,13.57
2018-06-14T21:58:30.582Z,13.54
2018-06-14T22:00:58.661Z,13.47
2018-06-14T22:03:32.165Z,13.47
2018-06-14T22:06:00.627Z,13.41
2018-06-14T22:08:29.178Z,13.43
2018-06-14T22:10:57.319Z,13.40
2018-06-14T22:13:25.440Z,13.40
2018-06-14T22:15:53.502Z,13.37
2018-06-14T22:18:21.594Z,13.36
2018-06-14T22:20:49.608Z,13.36
2018-06-14T22:23:17.633Z,13.36
2018-06-14T22:25:45.832Z,13.29
2018-06-14T22:28:14.049Z,13.28
2018-06-14T22:30:42.057Z,13.27
2018-06-14T22:33:21.091Z,13.25
2018-06-14T22:35:49.218Z,13.20
2018-06-14T22:38:17.294Z,13.20
2018-06-14T22:40:45.275Z,13.20
2018-06-14T22:43:13.332Z,13.21
2018-06-14T22:45:41.424Z,13.15
2018-06-14T22:48:09.516Z,13.07
2018-06-14T22:51:21.588Z,13.14
2018-06-14T22:53:49.583Z,13.11
2018-06-14T22:56:17.633Z,13.07
2018-06-14T22:58:45.784Z,13.07
2018-06-14T23:01:31.399Z,13.08
2018-06-14T23:04:00.279Z,13.11
2018-06-14T23:06:28.381Z,13.12
2018-06-14T23:08:56.941Z,13.08
2018-06-14T23:11:25.199Z,13.04
2018-06-14T23:13:53.526Z,12.96
2018-06-14T23:16:21.932Z,12.97
2018-06-14T23:18:50.163Z,13.07
2018-06-14T23:21:18.300Z,13.06
2018-06-14T23:23:46.390Z,13.12
2018-06-14T23:26:14.433Z,13.16
2018-06-14T23:28:42.501Z,13.23
2018-06-14T23:31:10.638Z,13.26
2018-06-14T23:33:38.637Z,13.17
2018-06-14T23:36:06.790Z,13.18
2018-06-14T23:38:34.823Z,13.24
2018-06-14T23:41:02.781Z,13.28
2018-06-14T23:43:30.836Z,13.47
2018-06-14T23:45:58.843Z,13.45
2018-06-14T23:48:26.915Z,13.54
2018-06-14T23:50:54.885Z,13.63
2018-06-14T23:53:22.899Z,13.65
2018-06-14T23:55:50.965Z,13.63
2018-06-14T23:58:19.175Z,13.62
